ADDS METAR Data INFO
IDs: Format: Raw Decoded Include TAF

Data at: 0233 UTC 21 Nov 2017

METAR for:KVCT (Victoria Rgnl, TX, US)
Text:KVCT 210151Z 12005KT 10SM OVC060 17/12 A3004 RMK AO2 SLP171 T01720117
Temperature: 17.2°C ( 63°F)
Dewpoint: 11.7°C ( 53°F) [RH = 70%]
Pressure (altimeter):30.04 inches Hg (1017.4 mb) [Sea level pressure: 1017.1 mb]
Winds:from the ESE (120 degrees) at 6 MPH (5 knots; 2.6 m/s)
Visibility:10 or more sm (16+ km)
Ceiling:6000 feet AGL
Clouds: overcast cloud deck at 6000 feet AGL